Terminal Aerodrome Forecast
Issued by NWS

Home | Current Version | Previous Version | Text Only | Print | Product List | Glossary On
Versions: 1 2 3 4 5 6 7 8 9 10 11 12 13 14 15 16 17 18 19 20
972
FTUS43 KJKL 171739
TAFSME
TAF
KSME 171739Z 1718/1818 23010G23KT P6SM TS VCSH OVC015CB
     FM172000 23010G20KT P6SM VCSH OVC008
     FM172300 26007KT P6SM VCSH OVC015
     FM180100 27006KT P6SM VCSH OVC035
     FM180400 27005KT P6SM -SHRA OVC008
     FM181000 VRB03KT 3SM BR OVC010
     FM181200 VRB03KT P6SM BKN008
     FM181400 29004KT P6SM BKN010=

USA.gov is the U.S. government's official web portal to all federal, state and local government web resources and services.